sensor_id;sensor_type;location;lat;lon;timestamp;pressure;altitude;pressure_sealevel;temperature;humidity
21240;BME280;10778;48.962;9.018;2023-03-29T00:02:16;99468.56;;;5.57;85.29
21240;BME280;10778;48.962;9.018;2023-03-29T00:04:42;99469.91;;;5.63;84.62
21240;BME280;10778;48.962;9.018;2023-03-29T00:07:08;99468.25;;;5.62;84.97
21240;BME280;10778;48.962;9.018;2023-03-29T00:09:34;99471.09;;;5.44;85.08
21240;BME280;10778;48.962;9.018;2023-03-29T00:12:00;99464.94;;;5.45;86.15
21240;BME280;10778;48.962;9.018;2023-03-29T00:14:27;99461.59;;;5.43;85.51
21240;BME280;10778;48.962;9.018;2023-03-29T00:16:55;99455.44;;;5.44;86.45
21240;BME280;10778;48.962;9.018;2023-03-29T00:19:21;99450.31;;;5.43;85.83
21240;BME280;10778;48.962;9.018;2023-03-29T00:21:47;99453.00;;;5.41;86.32
21240;BME280;10778;48.962;9.018;2023-03-29T00:24:13;99448.94;;;5.37;85.85
21240;BME280;10778;48.962;9.018;2023-03-29T00:26:39;99449.31;;;5.31;86.50
21240;BME280;10778;48.962;9.018;2023-03-29T00:29:05;99446.59;;;5.32;86.44
21240;BME280;10778;48.962;9.018;2023-03-29T00:31:31;99445.72;;;5.46;86.04
21240;BME280;10778;48.962;9.018;2023-03-29T00:33:57;99446.13;;;5.40;85.78
21240;BME280;10778;48.962;9.018;2023-03-29T00:36:23;99452.47;;;5.36;85.79
21240;BME280;10778;48.962;9.018;2023-03-29T00:38:49;99450.16;;;5.31;85.76
21240;BME280;10778;48.962;9.018;2023-03-29T00:41:15;99453.50;;;5.33;86.31
21240;BME280;10778;48.962;9.018;2023-03-29T00:43:59;99448.78;;;5.53;85.15
21240;BME280;10778;48.962;9.018;2023-03-29T00:46:27;99444.25;;;5.42;85.81
21240;BME280;10778;48.962;9.018;2023-03-29T00:49:01;99441.31;;;5.34;85.94
21240;BME280;10778;48.962;9.018;2023-03-29T00:51:32;99443.25;;;5.30;86.92
21240;BME280;10778;48.962;9.018;2023-03-29T00:54:00;99434.69;;;5.28;87.07
21240;BME280;10778;48.962;9.018;2023-03-29T00:56:32;99429.09;;;5.20;87.49
21240;BME280;10778;48.962;9.018;2023-03-29T00:59:09;99430.78;;;5.21;88.39
21240;BME280;10778;48.962;9.018;2023-03-29T01:02:00;99416.16;;;5.18;88.19
21240;BME280;10778;48.962;9.018;2023-03-29T01:04:40;99414.19;;;5.22;87.94
21240;BME280;10778;48.962;9.018;2023-03-29T01:07:12;99422.13;;;5.20;88.10
21240;BME280;10778;48.962;9.018;2023-03-29T01:09:47;99415.97;;;5.21;88.55
21240;BME280;10778;48.962;9.018;2023-03-29T01:12:20;99407.47;;;5.32;86.66
21240;BME280;10778;48.962;9.018;2023-03-29T01:14:51;99404.19;;;5.43;86.44
21240;BME280;10778;48.962;9.018;2023-03-29T01:17:19;99400.59;;;5.17;87.44
21240;BME280;10778;48.962;9.018;2023-03-29T01:19:55;99399.66;;;5.18;88.07
21240;BME280;10778;48.962;9.018;2023-03-29T01:22:40;99388.88;;;5.09;88.67
21240;BME280;10778;48.962;9.018;2023-03-29T01:25:42;99388.22;;;5.06;89.53
21240;BME280;10778;48.962;9.018;2023-03-29T01:28:23;99384.41;;;5.11;89.32
21240;BME280;10778;48.962;9.018;2023-03-29T01:31:11;99382.88;;;5.22;88.49
21240;BME280;10778;48.962;9.018;2023-03-29T01:33:49;99380.28;;;5.22;89.65
21240;BME280;10778;48.962;9.018;2023-03-29T01:38:56;99350.28;;;5.29;88.82
21240;BME280;10778;48.962;9.018;2023-03-29T01:41:33;99357.00;;;5.19;89.14
21240;BME280;10778;48.962;9.018;2023-03-29T01:44:06;99355.53;;;5.15;88.98
21240;BME280;10778;48.962;9.018;2023-03-29T01:47:01;99337.06;;;5.18;88.76
21240;BME280;10778;48.962;9.018;2023-03-29T01:49:52;99338.53;;;5.22;87.80
21240;BME280;10778;48.962;9.018;2023-03-29T01:52:25;99328.47;;;5.30;87.75
21240;BME280;10778;48.962;9.018;2023-03-29T01:55:04;99332.50;;;5.21;87.52
21240;BME280;10778;48.962;9.018;2023-03-29T01:57:32;99334.66;;;5.15;88.05
21240;BME280;10778;48.962;9.018;2023-03-29T02:00:00;99318.34;;;5.11;88.87
21240;BME280;10778;48.962;9.018;2023-03-29T02:02:38;99319.84;;;5.15;88.51
21240;BME280;10778;48.962;9.018;2023-03-29T02:05:07;99335.59;;;5.13;89.17
21240;BME280;10778;48.962;9.018;2023-03-29T02:07:35;99329.09;;;5.06;90.15
21240;BME280;10778;48.962;9.018;2023-03-29T02:10:04;99323.03;;;5.06;90.78
21240;BME280;10778;48.962;9.018;2023-03-29T02:12:32;99328.34;;;5.04;91.09
21240;BME280;10778;48.962;9.018;2023-03-29T02:15:00;99325.66;;;5.06;90.80
21240;BME280;10778;48.962;9.018;2023-03-29T02:17:27;99327.78;;;5.13;90.31
21240;BME280;10778;48.962;9.018;2023-03-29T02:20:05;99328.91;;;5.09;90.13
21240;BME280;10778;48.962;9.018;2023-03-29T02:22:55;99322.47;;;5.15;89.17
21240;BME280;10778;48.962;9.018;2023-03-29T02:25:23;99318.34;;;5.11;89.37
21240;BME280;10778;48.962;9.018;2023-03-29T02:27:51;99316.56;;;5.26;88.49
21240;BME280;10778;48.962;9.018;2023-03-29T02:30:18;99311.47;;;5.10;89.00
21240;BME280;10778;48.962;9.018;2023-03-29T02:35:38;99311.91;;;5.17;89.74
21240;BME280;10778;48.962;9.018;2023-03-29T02:38:07;99305.63;;;5.06;89.84
21240;BME280;10778;48.962;9.018;2023-03-29T02:40:37;99303.59;;;4.97;91.83
21240;BME280;10778;48.962;9.018;2023-03-29T02:43:05;99296.44;;;5.01;91.08
21240;BME280;10778;48.962;9.018;2023-03-29T02:45:34;99284.13;;;5.03;91.08
21240;BME280;10778;48.962;9.018;2023-03-29T02:48:05;99278.38;;;4.97;91.53
21240;BME280;10778;48.962;9.018;2023-03-29T02:50:36;99274.66;;;4.87;91.80
21240;BME280;10778;48.962;9.018;2023-03-29T02:53:06;99271.22;;;4.87;91.92
21240;BME280;10778;48.962;9.018;2023-03-29T02:55:35;99263.25;;;4.75;92.32
21240;BME280;10778;48.962;9.018;2023-03-29T02:58:03;99269.03;;;4.66;93.42
21240;BME280;10778;48.962;9.018;2023-03-29T03:00:36;99258.06;;;4.61;94.42
21240;BME280;10778;48.962;9.018;2023-03-29T03:03:05;99248.28;;;4.64;94.35
21240;BME280;10778;48.962;9.018;2023-03-29T03:05:31;99251.25;;;4.73;93.17
21240;BME280;10778;48.962;9.018;2023-03-29T03:07:57;99255.66;;;4.58;94.65
21240;BME280;10778;48.962;9.018;2023-03-29T03:10:23;99260.50;;;4.49;95.58
21240;BME280;10778;48.962;9.018;2023-03-29T03:12:49;99253.41;;;4.51;96.48
21240;BME280;10778;48.962;9.018;2023-03-29T03:15:15;99248.63;;;4.73;94.55
21240;BME280;10778;48.962;9.018;2023-03-29T03:17:42;99255.53;;;4.59;95.50
21240;BME280;10778;48.962;9.018;2023-03-29T03:20:10;99259.56;;;4.50;95.45
21240;BME280;10778;48.962;9.018;2023-03-29T03:22:43;99262.63;;;4.57;96.42
21240;BME280;10778;48.962;9.018;2023-03-29T03:25:10;99264.50;;;4.55;96.29
21240;BME280;10778;48.962;9.018;2023-03-29T03:27:37;99257.22;;;4.60;96.44
21240;BME280;10778;48.962;9.018;2023-03-29T03:30:05;99271.16;;;4.59;97.45
21240;BME280;10778;48.962;9.018;2023-03-29T03:32:48;99255.44;;;4.75;95.58
21240;BME280;10778;48.962;9.018;2023-03-29T03:35:42;99256.94;;;4.65;96.22
21240;BME280;10778;48.962;9.018;2023-03-29T03:38:13;99256.19;;;4.63;96.69
21240;BME280;10778;48.962;9.018;2023-03-29T03:40:39;99260.38;;;4.65;96.22
21240;BME280;10778;48.962;9.018;2023-03-29T03:43:05;99261.31;;;4.64;96.06
21240;BME280;10778;48.962;9.018;2023-03-29T03:45:32;99257.78;;;4.65;97.38
21240;BME280;10778;48.962;9.018;2023-03-29T03:48:08;99269.41;;;4.60;97.08
21240;BME280;10778;48.962;9.018;2023-03-29T03:50:55;99268.69;;;4.58;98.32
21240;BME280;10778;48.962;9.018;2023-03-29T03:53:24;99259.94;;;4.59;98.36
21240;BME280;10778;48.962;9.018;2023-03-29T03:56:09;99256.19;;;4.63;96.98
21240;BME280;10778;48.962;9.018;2023-03-29T03:58:51;99254.72;;;4.59;98.20
21240;BME280;10778;48.962;9.018;2023-03-29T04:01:18;99254.91;;;4.55;99.06
21240;BME280;10778;48.962;9.018;2023-03-29T04:03:57;99254.34;;;4.50;99.16
21240;BME280;10778;48.962;9.018;2023-03-29T04:06:23;99253.25;;;4.54;99.44
21240;BME280;10778;48.962;9.018;2023-03-29T04:09:08;99261.97;;;4.53;98.76
21240;BME280;10778;48.962;9.018;2023-03-29T04:11:39;99265.25;;;4.43;99.86
21240;BME280;10778;48.962;9.018;2023-03-29T04:14:06;99264.56;;;4.53;99.48
21240;BME280;10778;48.962;9.018;2023-03-29T04:16:49;99259.81;;;4.60;99.19
21240;BME280;10778;48.962;9.018;2023-03-29T04:19:38;99265.13;;;4.59;98.91
21240;BME280;10778;48.962;9.018;2023-03-29T04:22:04;99260.13;;;4.55;100.00
21240;BME280;10778;48.962;9.018;2023-03-29T04:24:30;99255.72;;;4.56;99.77
21240;BME280;10778;48.962;9.018;2023-03-29T04:27:18;99269.16;;;4.50;100.00
21240;BME280;10778;48.962;9.018;2023-03-29T04:29:44;99269.16;;;4.50;100.00
21240;BME280;10778;48.962;9.018;2023-03-29T04:32:20;99267.09;;;4.55;100.00
21240;BME280;10778;48.962;9.018;2023-03-29T04:34:54;99275.09;;;4.52;99.59
21240;BME280;10778;48.962;9.018;2023-03-29T04:37:21;99279.09;;;4.58;99.71
21240;BME280;10778;48.962;9.018;2023-03-29T04:39:50;99268.56;;;4.59;99.31
21240;BME280;10778;48.962;9.018;2023-03-29T04:42:18;99273.03;;;4.57;99.16
21240;BME280;10778;48.962;9.018;2023-03-29T04:44:45;99274.63;;;4.60;100.00
21240;BME280;10778;48.962;9.018;2023-03-29T04:47:16;99264.41;;;4.57;100.00
21240;BME280;10778;48.962;9.018;2023-03-29T04:49:56;99264.00;;;4.63;100.00
21240;BME280;10778;48.962;9.018;2023-03-29T04:52:39;99259.16;;;4.71;100.00
21240;BME280;10778;48.962;9.018;2023-03-29T04:55:06;99266.69;;;5.31;100.00
21240;BME280;10778;48.962;9.018;2023-03-29T04:57:42;99261.88;;;5.37;100.00
21240;BME280;10778;48.962;9.018;2023-03-29T05:00:33;99259.50;;;5.47;99.87
21240;BME280;10778;48.962;9.018;2023-03-29T05:03:21;99266.78;;;5.82;97.64
21240;BME280;10778;48.962;9.018;2023-03-29T05:06:10;99266.25;;;6.29;94.85
21240;BME280;10778;48.962;9.018;2023-03-29T05:08:39;99263.38;;;6.21;94.49
21240;BME280;10778;48.962;9.018;2023-03-29T05:11:16;99269.63;;;5.92;93.95
21240;BME280;10778;48.962;9.018;2023-03-29T05:13:44;99272.00;;;5.82;93.99
21240;BME280;10778;48.962;9.018;2023-03-29T05:16:10;99270.56;;;5.91;93.98
21240;BME280;10778;48.962;9.018;2023-03-29T05:18:37;99274.31;;;6.26;92.39
21240;BME280;10778;48.962;9.018;2023-03-29T05:21:03;99267.09;;;6.43;90.21
21240;BME280;10778;48.962;9.018;2023-03-29T05:23:32;99272.63;;;5.86;91.27
21240;BME280;10778;48.962;9.018;2023-03-29T05:26:19;99275.78;;;5.91;94.25
21240;BME280;10778;48.962;9.018;2023-03-29T05:28:50;99283.91;;;6.00;91.64
21240;BME280;10778;48.962;9.018;2023-03-29T05:31:17;99266.78;;;5.95;91.07
21240;BME280;10778;48.962;9.018;2023-03-29T05:33:46;99284.22;;;5.95;90.77
21240;BME280;10778;48.962;9.018;2023-03-29T05:36:16;99283.75;;;5.49;94.97
21240;BME280;10778;48.962;9.018;2023-03-29T05:38:46;99266.88;;;5.81;95.81
21240;BME280;10778;48.962;9.018;2023-03-29T05:41:13;99266.78;;;5.82;92.39
21240;BME280;10778;48.962;9.018;2023-03-29T05:44:00;99271.88;;;5.71;93.94
21240;BME280;10778;48.962;9.018;2023-03-29T05:46:27;99278.06;;;5.96;91.74
21240;BME280;10778;48.962;9.018;2023-03-29T05:48:56;99287.88;;;5.92;93.40
21240;BME280;10778;48.962;9.018;2023-03-29T05:51:33;99291.09;;;5.83;92.85
21240;BME280;10778;48.962;9.018;2023-03-29T05:54:00;99276.28;;;5.96;94.26
21240;BME280;10778;48.962;9.018;2023-03-29T05:56:27;99279.72;;;5.71;94.90
21240;BME280;10778;48.962;9.018;2023-03-29T05:58:53;99294.94;;;5.51;94.97
21240;BME280;10778;48.962;9.018;2023-03-29T06:01:22;99289.63;;;5.66;94.72
21240;BME280;10778;48.962;9.018;2023-03-29T06:03:58;99280.31;;;5.62;93.77
21240;BME280;10778;48.962;9.018;2023-03-29T06:06:31;99286.22;;;5.38;94.37
21240;BME280;10778;48.962;9.018;2023-03-29T06:08:58;99292.78;;;5.31;94.32
21240;BME280;10778;48.962;9.018;2023-03-29T06:11:31;99292.97;;;5.27;95.95
21240;BME280;10778;48.962;9.018;2023-03-29T06:14:36;99292.34;;;5.24;95.60
21240;BME280;10778;48.962;9.018;2023-03-29T06:17:20;99288.69;;;5.26;95.00
21240;BME280;10778;48.962;9.018;2023-03-29T06:19:47;99290.34;;;5.27;95.20
21240;BME280;10778;48.962;9.018;2023-03-29T06:22:13;99283.69;;;5.36;94.12
21240;BME280;10778;48.962;9.018;2023-03-29T06:24:39;99292.66;;;5.32;94.29
21240;BME280;10778;48.962;9.018;2023-03-29T06:27:13;99296.22;;;5.31;94.12
21240;BME280;10778;48.962;9.018;2023-03-29T06:29:40;99292.78;;;5.31;94.71
21240;BME280;10778;48.962;9.018;2023-03-29T06:32:06;99282.69;;;5.39;95.11
21240;BME280;10778;48.962;9.018;2023-03-29T06:34:44;99292.25;;;5.38;95.18
21240;BME280;10778;48.962;9.018;2023-03-29T06:37:27;99298.63;;;5.34;95.23
21240;BME280;10778;48.962;9.018;2023-03-29T06:40:19;99297.41;;;5.40;93.91
21240;BME280;10778;48.962;9.018;2023-03-29T06:42:49;99302.19;;;5.46;93.93
21240;BME280;10778;48.962;9.018;2023-03-29T06:45:41;99301.63;;;5.55;96.00
21240;BME280;10778;48.962;9.018;2023-03-29T06:48:17;99297.22;;;5.56;96.31
21240;BME280;10778;48.962;9.018;2023-03-29T06:50:43;99304.75;;;5.61;95.70
21240;BME280;10778;48.962;9.018;2023-03-29T06:53:12;99298.00;;;5.71;95.38
21240;BME280;10778;48.962;9.018;2023-03-29T06:55:40;99298.72;;;5.86;95.84
21240;BME280;10778;48.962;9.018;2023-03-29T06:58:24;99306.41;;;6.02;93.46
21240;BME280;10778;48.962;9.018;2023-03-29T07:00:51;99303.13;;;5.98;91.87
21240;BME280;10778;48.962;9.018;2023-03-29T07:03:31;99304.00;;;6.12;91.60
21240;BME280;10778;48.962;9.018;2023-03-29T07:06:03;99313.59;;;6.24;91.16
21240;BME280;10778;48.962;9.018;2023-03-29T07:08:36;99314.16;;;6.30;92.27
21240;BME280;10778;48.962;9.018;2023-03-29T07:11:15;99299.97;;;6.71;90.24
21240;BME280;10778;48.962;9.018;2023-03-29T07:13:50;99307.75;;;6.60;90.86
21240;BME280;10778;48.962;9.018;2023-03-29T07:16:18;99308.09;;;6.42;92.82
21240;BME280;10778;48.962;9.018;2023-03-29T07:19:05;99316.66;;;6.44;91.86
21240;BME280;10778;48.962;9.018;2023-03-29T07:21:51;99311.00;;;6.50;91.63
21240;BME280;10778;48.962;9.018;2023-03-29T07:24:19;99312.88;;;6.48;93.20
21240;BME280;10778;48.962;9.018;2023-03-29T07:26:46;99321.75;;;6.46;93.99
21240;BME280;10778;48.962;9.018;2023-03-29T07:29:14;99319.78;;;6.49;94.84
21240;BME280;10778;48.962;9.018;2023-03-29T07:31:41;99321.84;;;6.57;92.29
21240;BME280;10778;48.962;9.018;2023-03-29T07:34:27;99330.97;;;6.51;91.64
21240;BME280;10778;48.962;9.018;2023-03-29T07:36:55;99322.97;;;6.79;91.44
21240;BME280;10778;48.962;9.018;2023-03-29T07:39:22;99330.63;;;6.69;91.42
21240;BME280;10778;48.962;9.018;2023-03-29T07:42:08;99332.53;;;6.54;93.01
21240;BME280;10778;48.962;9.018;2023-03-29T07:44:34;99328.09;;;6.67;92.88
21240;BME280;10778;48.962;9.018;2023-03-29T07:47:02;99333.84;;;6.73;91.60
21240;BME280;10778;48.962;9.018;2023-03-29T07:49:29;99329.03;;;6.79;92.13
21240;BME280;10778;48.962;9.018;2023-03-29T07:51:56;99324.41;;;7.20;88.31
21240;BME280;10778;48.962;9.018;2023-03-29T07:54:22;99330.75;;;7.05;88.53
21240;BME280;10778;48.962;9.018;2023-03-29T07:56:57;99330.75;;;7.05;90.02
21240;BME280;10778;48.962;9.018;2023-03-29T07:59:29;99334.03;;;7.20;89.44
21240;BME280;10778;48.962;9.018;2023-03-29T08:02:09;99332.31;;;7.32;87.94
21240;BME280;10778;48.962;9.018;2023-03-29T08:04:49;99335.53;;;7.35;87.28
21240;BME280;10778;48.962;9.018;2023-03-29T08:07:16;99328.50;;;7.36;86.19
21240;BME280;10778;48.962;9.018;2023-03-29T08:09:57;99322.13;;;7.64;83.60
21240;BME280;10778;48.962;9.018;2023-03-29T08:12:38;99323.63;;;7.56;84.38
21240;BME280;10778;48.962;9.018;2023-03-29T08:15:05;99329.88;;;7.77;83.99
21240;BME280;10778;48.962;9.018;2023-03-29T08:17:34;99329.41;;;7.72;83.91
21240;BME280;10778;48.962;9.018;2023-03-29T08:20:03;99320.97;;;7.80;85.28
21240;BME280;10778;48.962;9.018;2023-03-29T08:22:32;99333.13;;;7.92;84.32
21240;BME280;10778;48.962;9.018;2023-03-29T08:25:08;99319.00;;;8.06;83.67
21240;BME280;10778;48.962;9.018;2023-03-29T08:27:40;99316.47;;;7.93;84.13
21240;BME280;10778;48.962;9.018;2023-03-29T08:30:09;99315.53;;;8.06;85.74
21240;BME280;10778;48.962;9.018;2023-03-29T08:32:37;99318.75;;;7.98;84.57
21240;BME280;10778;48.962;9.018;2023-03-29T08:35:06;99318.16;;;8.06;83.81
21240;BME280;10778;48.962;9.018;2023-03-29T08:37:40;99313.66;;;8.19;84.50
21240;BME280;10778;48.962;9.018;2023-03-29T08:40:06;99315.22;;;8.22;84.51
21240;BME280;10778;48.962;9.018;2023-03-29T08:45:37;99316.03;;;8.45;83.34
21240;BME280;10778;48.962;9.018;2023-03-29T08:48:23;99311.03;;;8.42;81.62
21240;BME280;10778;48.962;9.018;2023-03-29T08:51:03;99302.47;;;8.63;82.39
21240;BME280;10778;48.962;9.018;2023-03-29T08:53:34;99310.81;;;8.79;82.72
21240;BME280;10778;48.962;9.018;2023-03-29T08:56:17;99305.78;;;8.99;81.44
21240;BME280;10778;48.962;9.018;2023-03-29T08:59:05;99301.72;;;8.95;82.15
21240;BME280;10778;48.962;9.018;2023-03-29T09:01:37;99299.69;;;9.43;80.67
21240;BME280;10778;48.962;9.018;2023-03-29T09:04:06;99292.72;;;9.74;78.35
21240;BME280;10778;48.962;9.018;2023-03-29T09:06:47;99298.56;;;9.99;77.62
21240;BME280;10778;48.962;9.018;2023-03-29T09:09:21;99304.50;;;10.22;77.79
21240;BME280;10778;48.962;9.018;2023-03-29T09:11:58;99299.88;;;10.36;75.95
21240;BME280;10778;48.962;9.018;2023-03-29T09:17:34;99295.44;;;10.67;73.67
21240;BME280;10778;48.962;9.018;2023-03-29T09:23:16;99295.06;;;10.82;71.32
21240;BME280;10778;48.962;9.018;2023-03-29T09:31:46;99271.03;;;12.13;63.91
21240;BME280;10778;48.962;9.018;2023-03-29T09:34:36;99263.31;;;12.40;62.47
21240;BME280;10778;48.962;9.018;2023-03-29T09:37:24;99271.16;;;12.21;62.33
21240;BME280;10778;48.962;9.018;2023-03-29T09:39:55;99268.34;;;12.33;60.72
21240;BME280;10778;48.962;9.018;2023-03-29T09:42:30;99273.91;;;12.30;62.05
21240;BME280;10778;48.962;9.018;2023-03-29T09:45:02;99282.38;;;12.23;62.55
21240;BME280;10778;48.962;9.018;2023-03-29T09:47:43;99282.69;;;12.01;61.80
21240;BME280;10778;48.962;9.018;2023-03-29T09:50:17;99285.03;;;12.23;62.39
21240;BME280;10778;48.962;9.018;2023-03-29T09:52:44;99271.19;;;12.49;62.56
21240;BME280;10778;48.962;9.018;2023-03-29T09:55:19;99271.50;;;12.92;61.73
21240;BME280;10778;48.962;9.018;2023-03-29T09:57:54;99264.50;;;12.73;62.28
21240;BME280;10778;48.962;9.018;2023-03-29T10:00:23;99273.34;;;12.82;60.53
21240;BME280;10778;48.962;9.018;2023-03-29T10:02:55;99268.00;;;12.92;61.85
21240;BME280;10778;48.962;9.018;2023-03-29T10:05:29;99263.13;;;13.15;60.13
21240;BME280;10778;48.962;9.018;2023-03-29T10:07:59;99262.00;;;13.18;58.66
21240;BME280;10778;48.962;9.018;2023-03-29T10:10:28;99255.00;;;13.27;60.12
21240;BME280;10778;48.962;9.018;2023-03-29T10:13:04;99249.41;;;13.48;60.79
21240;BME280;10778;48.962;9.018;2023-03-29T10:15:31;99248.19;;;13.42;58.61
21240;BME280;10778;48.962;9.018;2023-03-29T10:18:00;99245.63;;;13.77;57.35
21240;BME280;10778;48.962;9.018;2023-03-29T10:20:28;99254.16;;;13.44;56.89
21240;BME280;10778;48.962;9.018;2023-03-29T10:22:56;99253.94;;;13.19;59.06
21240;BME280;10778;48.962;9.018;2023-03-29T10:25:31;99248.41;;;13.31;59.08
21240;BME280;10778;48.962;9.018;2023-03-29T10:28:03;99252.72;;;13.14;60.17
21240;BME280;10778;48.962;9.018;2023-03-29T10:30:34;99244.34;;;13.00;59.41
21240;BME280;10778;48.962;9.018;2023-03-29T10:33:02;99238.22;;;13.36;58.43
21240;BME280;10778;48.962;9.018;2023-03-29T10:35:47;99237.09;;;13.83;56.48
21240;BME280;10778;48.962;9.018;2023-03-29T10:38:16;99237.00;;;13.67;56.98
21240;BME280;10778;48.962;9.018;2023-03-29T10:40:47;99227.50;;;13.82;57.26
21240;BME280;10778;48.962;9.018;2023-03-29T10:43:27;99225.53;;;13.84;54.95
21240;BME280;10778;48.962;9.018;2023-03-29T10:45:56;99223.50;;;13.78;57.40
21240;BME280;10778;48.962;9.018;2023-03-29T10:48:30;99219.25;;;14.55;56.33
21240;BME280;10778;48.962;9.018;2023-03-29T10:50:59;99218.34;;;14.97;55.61
21240;BME280;10778;48.962;9.018;2023-03-29T10:53:31;99223.38;;;15.50;55.11
21240;BME280;10778;48.962;9.018;2023-03-29T10:59:22;99213.41;;;15.02;56.55
21240;BME280;10778;48.962;9.018;2023-03-29T11:05:20;99197.34;;;15.37;52.33
21240;BME280;10778;48.962;9.018;2023-03-29T11:10:39;99184.09;;;16.18;49.90
21240;BME280;10778;48.962;9.018;2023-03-29T11:29:52;99165.69;;;16.72;51.12
21240;BME280;10778;48.962;9.018;2023-03-29T11:32:30;99174.00;;;17.00;49.90
21240;BME280;10778;48.962;9.018;2023-03-29T11:35:26;99167.09;;;17.14;49.99
21240;BME280;10778;48.962;9.018;2023-03-29T11:38:13;99159.56;;;17.71;49.19
21240;BME280;10778;48.962;9.018;2023-03-29T11:43:22;99160.56;;;17.55;50.23
21240;BME280;10778;48.962;9.018;2023-03-29T11:45:54;99161.69;;;17.76;47.91
21240;BME280;10778;48.962;9.018;2023-03-29T11:48:31;99163.56;;;17.52;49.11
21240;BME280;10778;48.962;9.018;2023-03-29T11:53:40;99166.03;;;17.00;50.65
21240;BME280;10778;48.962;9.018;2023-03-29T11:56:14;99162.34;;;17.01;49.58
21240;BME280;10778;48.962;9.018;2023-03-29T11:58:45;99154.94;;;17.35;49.26
21240;BME280;10778;48.962;9.018;2023-03-29T12:01:17;99152.16;;;17.13;50.10
21240;BME280;10778;48.962;9.018;2023-03-29T12:03:56;99152.00;;;17.30;50.96
21240;BME280;10778;48.962;9.018;2023-03-29T12:06:36;99144.22;;;16.82;52.46
21240;BME280;10778;48.962;9.018;2023-03-29T12:09:31;99160.03;;;17.22;52.27
21240;BME280;10778;48.962;9.018;2023-03-29T12:12:40;99143.81;;;17.16;50.25
21240;BME280;10778;48.962;9.018;2023-03-29T12:15:16;99147.44;;;16.45;51.55
21240;BME280;10778;48.962;9.018;2023-03-29T12:20:25;99150.25;;;16.20;52.55
21240;BME280;10778;48.962;9.018;2023-03-29T12:22:55;99151.59;;;16.48;52.17
21240;BME280;10778;48.962;9.018;2023-03-29T12:25:27;99147.00;;;16.33;50.89
21240;BME280;10778;48.962;9.018;2023-03-29T12:28:15;99143.09;;;16.53;51.65
21240;BME280;10778;48.962;9.018;2023-03-29T12:30:48;99145.56;;;16.54;50.85
21240;BME280;10778;48.962;9.018;2023-03-29T12:34:10;99142.06;;;16.30;50.26
21240;BME280;10778;48.962;9.018;2023-03-29T12:36:57;99144.38;;;16.25;51.52
21240;BME280;10778;48.962;9.018;2023-03-29T12:40:10;99144.44;;;16.17;52.06
21240;BME280;10778;48.962;9.018;2023-03-29T12:43:06;99142.19;;;16.37;50.97
21240;BME280;10778;48.962;9.018;2023-03-29T12:46:05;99134.00;;;16.15;50.23
21240;BME280;10778;48.962;9.018;2023-03-29T12:48:32;99136.06;;;15.88;50.41
21240;BME280;10778;48.962;9.018;2023-03-29T12:51:13;99130.72;;;16.05;49.30
21240;BME280;10778;48.962;9.018;2023-03-29T12:53:53;99129.38;;;16.09;49.64
21240;BME280;10778;48.962;9.018;2023-03-29T12:56:37;99134.56;;;16.02;49.15
21240;BME280;10778;48.962;9.018;2023-03-29T13:01:35;99133.59;;;15.87;49.45
21240;BME280;10778;48.962;9.018;2023-03-29T13:04:18;99128.47;;;15.85;50.48
21240;BME280;10778;48.962;9.018;2023-03-29T13:14:43;99129.06;;;15.39;51.08
21240;BME280;10778;48.962;9.018;2023-03-29T13:20:46;99126.72;;;15.53;50.28
21240;BME280;10778;48.962;9.018;2023-03-29T13:31:05;99122.78;;;15.32;51.57
21240;BME280;10778;48.962;9.018;2023-03-29T13:34:26;99127.63;;;15.20;52.94
21240;BME280;10778;48.962;9.018;2023-03-29T13:39:58;99124.13;;;15.28;54.16
21240;BME280;10778;48.962;9.018;2023-03-29T13:42:38;99126.13;;;15.26;53.93
21240;BME280;10778;48.962;9.018;2023-03-29T13:45:24;99134.91;;;15.10;53.32
21240;BME280;10778;48.962;9.018;2023-03-29T13:48:04;99131.75;;;15.06;54.45
21240;BME280;10778;48.962;9.018;2023-03-29T13:50:38;99134.25;;;14.83;53.65
21240;BME280;10778;48.962;9.018;2023-03-29T13:53:25;99142.03;;;14.84;54.39
21240;BME280;10778;48.962;9.018;2023-03-29T13:55:53;99137.53;;;14.76;55.91
21240;BME280;10778;48.962;9.018;2023-03-29T14:03:51;99134.03;;;14.59;58.01
21240;BME280;10778;48.962;9.018;2023-03-29T14:06:24;99143.13;;;14.48;60.72
21240;BME280;10778;48.962;9.018;2023-03-29T14:08:51;99144.22;;;14.21;62.63
21240;BME280;10778;48.962;9.018;2023-03-29T14:13:51;99134.25;;;14.06;64.01
21240;BME280;10778;48.962;9.018;2023-03-29T14:16:18;99136.09;;;14.22;64.55
21240;BME280;10778;48.962;9.018;2023-03-29T14:18:45;99122.22;;;14.29;64.83
21240;BME280;10778;48.962;9.018;2023-03-29T14:21:16;99113.72;;;14.08;65.95
21240;BME280;10778;48.962;9.018;2023-03-29T14:23:45;99112.22;;;14.06;65.74
21240;BME280;10778;48.962;9.018;2023-03-29T14:26:21;99108.44;;;14.08;66.33
21240;BME280;10778;48.962;9.018;2023-03-29T14:28:54;99116.56;;;14.23;65.54
21240;BME280;10778;48.962;9.018;2023-03-29T14:31:32;99110.66;;;14.38;65.70
21240;BME280;10778;48.962;9.018;2023-03-29T14:33:59;99094.28;;;14.51;65.09
21240;BME280;10778;48.962;9.018;2023-03-29T14:36:28;99095.44;;;14.32;65.19
21240;BME280;10778;48.962;9.018;2023-03-29T14:41:34;99090.50;;;14.54;64.71
21240;BME280;10778;48.962;9.018;2023-03-29T14:44:05;99089.84;;;14.68;63.00
21240;BME280;10778;48.962;9.018;2023-03-29T14:46:32;99087.72;;;14.80;63.68
21240;BME280;10778;48.962;9.018;2023-03-29T14:48:59;99082.56;;;14.70;63.55
21240;BME280;10778;48.962;9.018;2023-03-29T14:51:27;99084.91;;;14.65;63.40
21240;BME280;10778;48.962;9.018;2023-03-29T14:54:00;99088.69;;;14.62;63.09
21240;BME280;10778;48.962;9.018;2023-03-29T14:56:29;99071.00;;;14.71;63.98
21240;BME280;10778;48.962;9.018;2023-03-29T14:58:58;99073.81;;;14.86;63.74
21240;BME280;10778;48.962;9.018;2023-03-29T15:01:25;99072.34;;;14.84;63.67
21240;BME280;10778;48.962;9.018;2023-03-29T15:03:55;99061.88;;;14.65;64.49
21240;BME280;10778;48.962;9.018;2023-03-29T15:06:23;99054.63;;;14.76;61.55
21240;BME280;10778;48.962;9.018;2023-03-29T15:08:50;99051.94;;;14.68;61.54
21240;BME280;10778;48.962;9.018;2023-03-29T15:11:19;99053.41;;;14.45;60.84
21240;BME280;10778;48.962;9.018;2023-03-29T15:13:47;99050.31;;;14.58;61.40